Time;durP1;ratioP1;P1;durP2;ratioP2;P2;SDS_P1;SDS_P2;PMS_P1;PMS_P2;Temp;Humidity;BMP_temperature;BMP_pressure;BME280_temperature;BME280_humidity;BME280_pressure;Samples;Min_cycle;Max_cycle;Signal;HPM_P1;HPM_P2
2021/07/22 00:00:38;;;;;;;8.53;7.63;;;19.70;99.90;;;;;;5068497;28;20277;-74
2021/07/22 00:03:05;;;;;;;10.37;8.37;;;19.70;99.90;;;;;;5068396;28;20246;-74
2021/07/22 00:05:31;;;;;;;8.77;7.87;;;19.70;99.90;;;;;;5068069;28;20619;-74
2021/07/22 00:08:01;;;;;;;9.90;7.87;;;19.70;99.90;;;;;;5068181;28;20239;-74
2021/07/22 00:10:28;;;;;;;9.73;8.73;;;19.70;99.90;;;;;;5068010;28;20231;-74
2021/07/22 00:12:55;;;;;;;8.57;7.73;;;19.80;99.90;;;;;;5067867;28;20734;-74
2021/07/22 00:15:21;;;;;;;8.97;7.97;;;19.70;99.90;;;;;;5068178;28;20199;-74
2021/07/22 00:17:48;;;;;;;10.07;8.27;;;19.70;99.90;;;;;;5068087;28;20289;-74
2021/07/22 00:20:15;;;;;;;9.53;8.53;;;19.60;99.90;;;;;;5068326;28;20624;-74
2021/07/22 00:22:42;;;;;;;10.47;8.17;;;19.60;99.90;;;;;;5068117;28;20261;-74
2021/07/22 00:25:10;;;;;;;10.93;8.23;;;19.60;99.90;;;;;;5068052;28;20630;-74
2021/07/22 00:27:37;;;;;;;9.23;7.70;;;19.50;99.90;;;;;;5068244;28;20208;-74
2021/07/22 00:30:05;;;;;;;10.33;8.00;;;19.50;99.90;;;;;;5067944;28;20712;-74
2021/07/22 00:32:31;;;;;;;8.33;7.63;;;19.50;99.90;;;;;;5068056;28;20243;-74
2021/07/22 00:34:58;;;;;;;9.63;8.07;;;19.50;99.90;;;;;;5067974;28;20211;-74
2021/07/22 00:37:24;;;;;;;9.13;8.23;;;19.60;99.90;;;;;;5067907;28;20274;-74
2021/07/22 00:39:51;;;;;;;9.50;8.57;;;19.60;99.90;;;;;;5067867;28;20270;-74
2021/07/22 00:42:19;;;;;;;8.80;7.87;;;19.50;99.90;;;;;;5067493;28;20834;-74
2021/07/22 00:44:46;;;;;;;9.20;8.27;;;19.50;99.90;;;;;;5067843;28;20249;-73
2021/07/22 00:47:13;;;;;;;11.30;8.47;;;19.50;99.90;;;;;;5067920;28;20207;-73
2021/07/22 00:49:39;;;;;;;9.53;8.50;;;19.50;99.90;;;;;;5067907;28;20305;-73
2021/07/22 00:52:06;;;;;;;9.50;7.97;;;19.50;99.90;;;;;;5067652;28;20211;-73
2021/07/22 00:54:33;;;;;;;10.27;8.57;;;19.50;99.90;;;;;;5067673;28;20231;-74
2021/07/22 00:56:59;;;;;;;9.27;8.30;;;19.50;99.90;;;;;;5068776;28;20227;-73
2021/07/22 00:59:27;;;;;;;9.63;8.03;;;19.50;99.90;;;;;;5071439;28;20288;-74
2021/07/22 01:01:54;;;;;;;9.53;8.43;;;19.50;99.90;;;;;;5071313;28;20246;-74
2021/07/22 01:04:20;;;;;;;9.43;8.50;;;19.50;99.90;;;;;;5071478;28;20211;-74
2021/07/22 01:06:47;;;;;;;9.10;8.20;;;19.50;99.90;;;;;;5071118;28;20535;-74
2021/07/22 01:09:13;;;;;;;10.13;8.10;;;19.50;99.90;;;;;;5070965;28;20243;-74
2021/07/22 01:11:40;;;;;;;8.90;8.00;;;19.60;99.90;;;;;;5070828;28;20234;-74
2021/07/22 01:14:06;;;;;;;8.93;8.13;;;19.60;99.90;;;;;;5070999;28;20239;-74
2021/07/22 01:16:35;;;;;;;8.97;8.07;;;19.60;99.90;;;;;;5071009;28;20224;-74
2021/07/22 01:19:02;;;;;;;8.97;7.47;;;19.60;99.90;;;;;;5070843;28;20263;-74
2021/07/22 01:21:30;;;;;;;8.63;7.73;;;19.60;99.90;;;;;;5070829;28;20264;-74
2021/07/22 01:23:57;;;;;;;9.90;7.47;;;19.60;99.90;;;;;;5070943;28;20211;-74
2021/07/22 01:26:23;;;;;;;8.67;7.70;;;19.60;99.90;;;;;;5070987;28;20243;-74
2021/07/22 01:28:50;;;;;;;10.17;8.27;;;19.60;99.90;;;;;;5070756;28;20219;-73
2021/07/22 01:31:23;;;;;;;10.40;8.40;;;19.60;99.90;;;;;;5070895;28;20204;-74
2021/07/22 01:33:49;;;;;;;9.77;7.80;;;19.60;99.90;;;;;;5070643;28;20207;-73
2021/07/22 01:36:22;;;;;;;8.63;7.83;;;19.60;99.90;;;;;;5070655;28;20246;-73
2021/07/22 01:38:50;;;;;;;10.40;7.67;;;19.50;99.90;;;;;;5070363;28;20317;-73
2021/07/22 01:41:17;;;;;;;8.30;7.47;;;19.50;99.90;;;;;;5070500;28;20340;-73
2021/07/22 01:43:43;;;;;;;8.90;8.07;;;19.50;99.90;;;;;;5070545;28;20211;-73
2021/07/22 01:46:10;;;;;;;8.87;8.00;;;19.50;99.90;;;;;;5070341;28;20203;-73
2021/07/22 01:48:37;;;;;;;8.90;7.80;;;19.50;99.90;;;;;;5070561;28;20608;-73
2021/07/22 01:51:06;;;;;;;8.63;7.73;;;19.50;99.90;;;;;;5070472;28;20296;-73
2021/07/22 01:53:33;;;;;;;9.07;7.80;;;19.50;99.90;;;;;;5070362;28;20268;-73
2021/07/22 01:56:03;;;;;;;9.43;7.93;;;19.50;99.90;;;;;;5069978;28;20673;-73
2021/07/22 01:58:30;;;;;;;10.67;8.27;;;19.50;99.90;;;;;;5069894;28;20254;-73
2021/07/22 02:00:56;;;;;;;9.57;8.10;;;19.40;99.90;;;;;;5070245;28;20239;-74
2021/07/22 02:03:23;;;;;;;8.17;7.23;;;19.40;99.90;;;;;;5070132;28;20212;-73
2021/07/22 02:05:50;;;;;;;9.23;7.67;;;19.40;99.90;;;;;;5069534;28;21108;-73
2021/07/22 02:08:16;;;;;;;9.20;7.87;;;19.40;99.90;;;;;;5068783;28;20241;-74
2021/07/22 02:10:43;;;;;;;8.93;8.03;;;19.40;99.90;;;;;;5070280;28;20249;-74
2021/07/22 02:13:11;;;;;;;12.40;8.57;;;19.40;99.90;;;;;;5069978;28;20204;-74
2021/07/22 02:15:38;;;;;;;12.23;8.60;;;19.40;99.90;;;;;;5069692;28;20756;-74
2021/07/22 02:18:05;;;;;;;9.47;7.87;;;19.40;99.90;;;;;;5069825;28;20211;-74
2021/07/22 02:20:32;;;;;;;10.10;8.37;;;19.40;99.90;;;;;;5069825;28;20235;-74
2021/07/22 02:22:58;;;;;;;14.27;8.57;;;19.40;99.90;;;;;;5069860;28;20204;-74
2021/07/22 02:25:25;;;;;;;9.73;8.27;;;19.40;99.90;;;;;;5069737;28;20247;-74
2021/07/22 02:27:51;;;;;;;9.80;8.83;;;19.40;99.90;;;;;;5069626;28;20239;-73
2021/07/22 02:30:19;;;;;;;10.97;8.10;;;19.30;99.90;;;;;;5069683;28;20292;-73
2021/07/22 02:32:46;;;;;;;9.53;8.33;;;19.30;99.90;;;;;;5069704;28;20199;-74
2021/07/22 02:35:13;;;;;;;9.00;8.10;;;19.30;99.90;;;;;;5067424;28;20229;-72
2021/07/22 02:37:39;;;;;;;8.67;7.83;;;19.30;99.90;;;;;;5069074;28;20231;-72
2021/07/22 02:40:07;;;;;;;9.37;8.47;;;19.30;99.90;;;;;;5068853;28;20262;-75
2021/07/22 02:42:34;;;;;;;11.53;8.43;;;19.30;99.90;;;;;;5068843;28;20722;-74
2021/07/22 02:45:00;;;;;;;9.20;8.30;;;19.30;99.90;;;;;;5068639;28;20200;-73
2021/07/22 02:47:28;;;;;;;9.07;8.10;;;19.30;99.90;;;;;;5055247;28;20234;-73
2021/07/22 02:49:54;;;;;;;10.33;8.10;;;19.30;99.90;;;;;;5066608;28;20273;-73
2021/07/22 02:52:21;;;;;;;10.63;8.00;;;19.30;99.90;;;;;;5066451;28;20235;-73
2021/07/22 02:54:48;;;;;;;11.50;9.27;;;19.30;99.90;;;;;;5066753;28;20219;-73
2021/07/22 02:57:14;;;;;;;10.40;8.63;;;19.20;99.90;;;;;;5066723;28;20363;-73
2021/07/22 02:59:41;;;;;;;10.93;8.73;;;19.20;99.90;;;;;;5066779;28;20242;-73
2021/07/22 03:02:08;;;;;;;11.33;8.80;;;19.20;99.90;;;;;;5065856;28;20243;-75
2021/07/22 03:04:36;;;;;;;10.20;9.20;;;19.20;99.90;;;;;;5066910;28;20312;-75
2021/07/22 03:07:04;;;;;;;9.43;8.43;;;19.20;99.90;;;;;;5066924;28;20212;-73
2021/07/22 03:09:31;;;;;;;13.10;8.67;;;19.20;99.90;;;;;;5066602;28;20773;-74
2021/07/22 03:11:58;;;;;;;9.40;8.50;;;19.20;99.90;;;;;;5066623;28;20207;-74
2021/07/22 03:14:24;;;;;;;14.50;8.70;;;19.20;99.90;;;;;;5066412;28;20657;-74
2021/07/22 03:16:51;;;;;;;9.07;8.30;;;19.20;99.90;;;;;;5066130;28;20255;-74
2021/07/22 03:19:18;;;;;;;10.53;8.57;;;19.20;99.90;;;;;;5066120;28;20228;-74
2021/07/22 03:21:45;;;;;;;9.77;8.30;;;19.20;99.90;;;;;;5066173;28;20214;-73
2021/07/22 03:24:12;;;;;;;11.87;8.57;;;19.20;99.90;;;;;;5067841;28;20585;-73
2021/07/22 03:26:39;;;;;;;9.53;8.53;;;19.10;99.90;;;;;;5068066;28;20207;-73
2021/07/22 03:29:05;;;;;;;11.30;9.03;;;19.10;99.90;;;;;;5068572;28;20252;-73
2021/07/22 03:31:32;;;;;;;9.03;8.20;;;19.10;99.90;;;;;;5068350;28;20560;-73
2021/07/22 03:33:58;;;;;;;9.87;8.87;;;19.10;99.90;;;;;;5068597;28;20203;-73
2021/07/22 03:36:25;;;;;;;9.87;8.53;;;19.10;99.90;;;;;;5068333;28;20669;-73
2021/07/22 03:38:53;;;;;;;9.50;8.47;;;18.90;99.90;;;;;;5068647;28;20231;-73
2021/07/22 03:41:22;;;;;;;11.03;9.23;;;18.90;99.90;;;;;;5068415;28;20231;-73
2021/07/22 03:43:49;;;;;;;10.47;9.37;;;19.00;99.90;;;;;;5068450;28;20199;-73
2021/07/22 03:46:15;;;;;;;10.90;9.03;;;18.90;99.90;;;;;;5068533;28;20207;-73
2021/07/22 03:48:42;;;;;;;13.60;10.10;;;18.90;99.90;;;;;;5068548;28;20211;-73
2021/07/22 03:51:08;;;;;;;11.57;9.20;;;18.90;99.90;;;;;;5068236;28;20239;-73
2021/07/22 03:53:35;;;;;;;10.43;9.27;;;18.90;99.90;;;;;;5068513;28;20211;-73
2021/07/22 03:56:03;;;;;;;11.07;9.23;;;18.80;99.90;;;;;;5068341;28;20203;-73
2021/07/22 03:58:30;;;;;;;11.47;10.00;;;18.80;99.90;;;;;;5068265;28;20204;-71
2021/07/22 04:00:58;;;;;;;10.23;9.03;;;18.60;99.90;;;;;;5067727;28;21033;-71
2021/07/22 04:03:25;;;;;;;10.00;8.97;;;18.60;99.90;;;;;;5068457;28;20229;-71
2021/07/22 04:05:52;;;;;;;11.07;9.97;;;18.70;99.90;;;;;;5068505;28;20207;-71
2021/07/22 04:08:19;;;;;;;12.73;9.87;;;18.70;99.90;;;;;;5067914;28;20235;-71
2021/07/22 04:10:45;;;;;;;12.30;10.03;;;18.70;99.90;;;;;;5068003;28;20219;-71
2021/07/22 04:13:13;;;;;;;14.77;10.23;;;18.70;99.90;;;;;;5068120;28;20268;-72
2021/07/22 04:15:40;;;;;;;10.63;9.30;;;18.70;99.90;;;;;;5068014;28;20277;-72
2021/07/22 04:18:06;;;;;;;11.03;9.93;;;18.70;99.90;;;;;;5067977;28;20243;-72
2021/07/22 04:20:33;;;;;;;11.20;10.03;;;18.70;99.90;;;;;;5067766;28;20697;-72
2021/07/22 04:23:00;;;;;;;11.10;9.67;;;18.70;99.90;;;;;;5067785;28;20203;-72
2021/07/22 04:25:27;;;;;;;13.67;10.87;;;18.70;99.90;;;;;;5068172;28;20249;-72
2021/07/22 04:27:54;;;;;;;11.07;9.97;;;18.70;99.90;;;;;;5067896;28;20256;-72
2021/07/22 04:30:22;;;;;;;11.17;8.80;;;18.80;99.90;;;;;;5068091;28;20204;-72
2021/07/22 04:32:49;;;;;;;13.83;9.90;;;18.80;99.90;;;;;;5070599;28;20253;-72
2021/07/22 04:35:16;;;;;;;12.77;9.47;;;18.90;99.90;;;;;;5071840;28;20200;-72
2021/07/22 04:37:42;;;;;;;12.10;9.97;;;19.00;99.90;;;;;;5071885;28;20228;-72
2021/07/22 04:40:09;;;;;;;10.67;9.57;;;18.90;99.90;;;;;;5071343;28;21009;-72
2021/07/22 04:42:37;;;;;;;12.27;10.33;;;19.00;99.90;;;;;;5071785;28;20401;-72
2021/07/22 04:45:04;;;;;;;10.40;9.40;;;19.00;99.90;;;;;;5071503;28;20250;-72
2021/07/22 04:47:31;;;;;;;11.97;9.97;;;19.00;99.90;;;;;;5071493;28;20292;-72
2021/07/22 04:49:58;;;;;;;11.40;9.57;;;19.10;99.90;;;;;;5071446;28;20203;-72
2021/07/22 04:52:25;;;;;;;10.53;9.23;;;19.10;99.90;;;;;;5071319;28;20200;-72
2021/07/22 04:54:52;;;;;;;10.87;9.67;;;19.10;99.90;;;;;;5071730;28;20261;-72
2021/07/22 04:57:18;;;;;;;10.37;9.13;;;19.10;99.90;;;;;;5071505;28;20605;-72
2021/07/22 04:59:45;;;;;;;14.00;9.97;;;19.10;99.90;;;;;;5071271;28;20728;-72
2021/07/22 05:02:11;;;;;;;11.53;9.93;;;19.10;99.90;;;;;;5071341;28;20215;-72
2021/07/22 05:04:39;;;;;;;11.20;9.83;;;19.00;99.90;;;;;;5071494;28;20214;-72
2021/07/22 05:07:06;;;;;;;11.93;9.70;;;19.00;99.90;;;;;;5071250;28;20235;-72
2021/07/22 05:09:33;;;;;;;12.57;9.70;;;19.00;99.90;;;;;;5070899;28;20242;-72
2021/07/22 05:11:59;;;;;;;11.17;9.50;;;19.10;99.90;;;;;;5071102;28;20203;-72
2021/07/22 05:14:26;;;;;;;11.37;9.13;;;19.10;99.90;;;;;;5071037;28;20203;-72
2021/07/22 05:16:53;;;;;;;11.07;8.97;;;19.20;99.90;;;;;;5071234;28;20234;-72
2021/07/22 05:19:19;;;;;;;11.00;9.10;;;19.10;99.90;;;;;;5070894;28;20238;-72
2021/07/22 05:21:47;;;;;;;11.63;9.60;;;19.10;99.90;;;;;;5068493;28;20284;-72
2021/07/22 05:24:14;;;;;;;10.23;9.20;;;19.20;99.90;;;;;;5070503;28;20242;-72
2021/07/22 05:26:41;;;;;;;12.17;8.90;;;19.20;99.90;;;;;;5070902;28;20208;-72
2021/07/22 05:29:07;;;;;;;9.27;7.93;;;19.20;99.90;;;;;;5070397;28;20697;-72
2021/07/22 05:31:34;;;;;;;11.67;9.17;;;19.30;99.90;;;;;;5070643;28;20208;-72
2021/07/22 05:34:01;;;;;;;11.80;8.73;;;19.20;99.90;;;;;;5070765;28;20280;-72
2021/07/22 05:36:27;;;;;;;9.00;8.20;;;19.30;99.90;;;;;;5070750;28;20274;-72
2021/07/22 05:38:55;;;;;;;9.50;8.43;;;19.40;99.90;;;;;;5070441;28;20738;-72
2021/07/22 05:41:22;;;;;;;11.90;8.37;;;19.40;99.90;;;;;;5070355;28;20293;-72
2021/07/22 05:43:48;;;;;;;11.73;8.57;;;19.50;99.90;;;;;;5070598;28;20246;-72
2021/07/22 05:46:19;;;;;;;9.53;7.70;;;19.50;99.90;;;;;;5070325;28;20239;-72
2021/07/22 05:48:46;;;;;;;9.63;8.40;;;19.60;99.90;;;;;;5070550;28;20195;-72
2021/07/22 05:51:13;;;;;;;11.77;8.57;;;19.70;99.90;;;;;;5070379;28;20265;-72
2021/07/22 05:53:40;;;;;;;8.77;7.80;;;19.70;99.90;;;;;;5070195;28;20767;-72
2021/07/22 05:56:10;;;;;;;9.47;8.40;;;19.70;99.90;;;;;;5069919;28;20735;-72
2021/07/22 05:58:36;;;;;;;10.67;8.10;;;19.80;99.90;;;;;;5070317;28;20241;-72
2021/07/22 06:01:05;;;;;;;9.80;7.80;;;19.80;99.90;;;;;;5070144;28;20231;-72
2021/07/22 06:03:32;;;;;;;10.63;8.90;;;19.80;99.90;;;;;;5070259;28;20203;-72
2021/07/22 06:05:58;;;;;;;11.63;8.73;;;19.80;99.90;;;;;;5070178;28;20254;-72
2021/07/22 06:08:25;;;;;;;9.90;8.90;;;19.90;99.90;;;;;;5069929;28;20211;-72
2021/07/22 06:10:51;;;;;;;9.50;8.60;;;19.90;99.90;;;;;;5070059;28;20250;-72
2021/07/22 06:13:19;;;;;;;9.53;8.53;;;19.90;99.90;;;;;;5069692;28;20677;-72
2021/07/22 06:15:46;;;;;;;8.50;7.70;;;19.90;99.90;;;;;;5069944;28;20670;-72
2021/07/22 06:18:12;;;;;;;9.97;8.73;;;20.00;99.90;;;;;;5069895;28;20255;-72
2021/07/22 06:20:39;;;;;;;11.50;9.13;;;20.10;99.90;;;;;;5069945;28;20231;-72
2021/07/22 06:23:06;;;;;;;9.67;8.10;;;20.10;99.90;;;;;;5069719;28;20207;-72
2021/07/22 06:25:32;;;;;;;10.90;9.13;;;20.10;99.90;;;;;;5069682;28;20685;-72
2021/07/22 06:27:59;;;;;;;9.20;8.40;;;20.10;99.90;;;;;;5069522;28;20674;-72
2021/07/22 06:30:27;;;;;;;12.53;11.23;;;20.10;99.90;;;;;;5069724;28;20268;-72
2021/07/22 06:32:53;;;;;;;11.70;9.63;;;20.10;99.90;;;;;;5069663;28;20249;-72
2021/07/22 06:35:20;;;;;;;9.23;8.33;;;20.20;99.90;;;;;;5069626;28;20296;-72
2021/07/22 06:37:48;;;;;;;10.00;9.00;;;20.20;99.90;;;;;;5069283;28;20259;-72
2021/07/22 06:40:16;;;;;;;11.17;9.63;;;20.20;99.90;;;;;;5069002;28;20235;-72
2021/07/22 06:42:42;;;;;;;10.10;9.07;;;20.20;99.90;;;;;;5069427;28;20238;-72
2021/07/22 06:45:10;;;;;;;9.93;8.93;;;20.20;99.90;;;;;;5069443;28;20665;-72
2021/07/22 06:47:41;;;;;;;11.80;9.10;;;20.30;99.90;;;;;;5069547;28;20211;-72
2021/07/22 06:50:09;;;;;;;11.27;9.30;;;20.30;99.90;;;;;;5069325;28;20219;-72
2021/07/22 06:52:37;;;;;;;11.63;8.40;;;20.20;99.90;;;;;;5069258;28;20207;-72
2021/07/22 06:55:04;;;;;;;9.23;8.33;;;20.30;99.90;;;;;;5068411;28;20238;-72
2021/07/22 06:57:35;;;;;;;10.27;8.20;;;20.30;99.90;;;;;;5069099;28;20203;-72
2021/07/22 07:00:02;;;;;;;9.50;8.13;;;20.30;99.90;;;;;;5069028;28;20281;-72
2021/07/22 07:02:28;;;;;;;8.67;7.57;;;20.40;99.90;;;;;;5069230;28;20251;-72
2021/07/22 07:04:56;;;;;;;9.53;7.43;;;20.40;99.90;;;;;;5069056;28;20260;-72
2021/07/22 07:07:23;;;;;;;8.33;7.53;;;20.40;99.90;;;;;;5068941;28;20285;-72
2021/07/22 07:09:49;;;;;;;9.43;8.23;;;20.50;99.90;;;;;;5068669;28;20273;-72
2021/07/22 07:12:16;;;;;;;11.37;8.83;;;20.50;99.90;;;;;;5068941;28;20223;-72
2021/07/22 07:14:43;;;;;;;10.97;8.33;;;20.50;99.90;;;;;;5068864;28;20308;-72
2021/07/22 07:17:09;;;;;;;10.27;8.07;;;20.50;99.90;;;;;;5068438;28;20677;-72
2021/07/22 07:19:36;;;;;;;16.47;7.77;;;20.60;99.90;;;;;;5068787;28;20253;-72
2021/07/22 07:22:04;;;;;;;8.40;7.57;;;20.60;99.90;;;;;;5068915;28;20296;-72
2021/07/22 07:24:31;;;;;;;10.63;7.67;;;20.60;99.90;;;;;;5068858;28;20231;-72
2021/07/22 07:26:57;;;;;;;9.33;8.03;;;20.60;99.90;;;;;;5068465;28;20878;-72
2021/07/22 07:29:24;;;;;;;8.73;7.93;;;20.70;99.90;;;;;;5068446;28;20814;-72
2021/07/22 07:31:51;;;;;;;9.23;8.30;;;20.60;99.90;;;;;;5068592;28;20239;-72
2021/07/22 07:34:17;;;;;;;7.90;7.20;;;20.70;99.90;;;;;;5068589;28;20247;-72
2021/07/22 07:36:44;;;;;;;10.70;7.67;;;20.70;99.90;;;;;;5068226;28;20224;-72
2021/07/22 07:39:14;;;;;;;9.73;8.43;;;20.80;99.90;;;;;;5068387;28;20227;-72
2021/07/22 07:41:40;;;;;;;12.47;8.40;;;20.80;99.90;;;;;;5068305;28;20239;-72
2021/07/22 07:44:07;;;;;;;10.67;8.10;;;20.80;99.90;;;;;;5068442;28;20203;-72
2021/07/22 07:46:34;;;;;;;8.97;7.90;;;20.80;99.90;;;;;;5068435;28;20654;-72
2021/07/22 07:49:00;;;;;;;9.33;8.30;;;20.80;99.90;;;;;;5068496;28;20277;-72
2021/07/22 07:51:27;;;;;;;9.17;8.20;;;20.90;99.90;;;;;;5067993;28;20579;-72
2021/07/22 07:53:54;;;;;;;8.30;7.27;;;20.90;99.90;;;;;;5068089;28;20550;-71
2021/07/22 07:56:21;;;;;;;8.70;7.30;;;20.90;99.90;;;;;;5068211;28;20203;-71
2021/07/22 07:58:48;;;;;;;8.10;7.30;;;20.90;99.90;;;;;;5068380;28;20212;-71
2021/07/22 08:01:15;;;;;;;9.23;7.13;;;20.90;99.90;;;;;;5068150;28;20227;-72
2021/07/22 08:03:42;;;;;;;9.40;7.50;;;20.90;99.90;;;;;;5068515;28;20227;-71
2021/07/22 08:06:09;;;;;;;9.05;8.13;;;21.00;99.90;;;;;;5067956;28;20665;-71
2021/07/22 08:08:36;;;;;;;10.73;7.83;;;21.00;99.90;;;;;;5072121;28;20315;-71
2021/07/22 08:11:03;;;;;;;9.77;7.53;;;21.00;99.90;;;;;;5072443;28;20253;-71
2021/07/22 08:13:31;;;;;;;9.33;7.30;;;21.00;99.90;;;;;;5072250;28;20260;-71
2021/07/22 08:15:57;;;;;;;9.27;6.93;;;21.00;99.90;;;;;;5071451;28;20227;-72
2021/07/22 08:18:24;;;;;;;7.97;7.20;;;21.10;99.90;;;;;;5072000;28;20253;-71
2021/07/22 08:20:50;;;;;;;8.47;7.43;;;21.20;99.90;;;;;;5071841;28;20266;-71
2021/07/22 08:23:17;;;;;;;7.87;7.07;;;21.30;99.90;;;;;;5071804;28;20680;-71
2021/07/22 08:25:43;;;;;;;11.53;7.17;;;21.40;99.90;;;;;;5072143;28;20231;-71
2021/07/22 08:28:12;;;;;;;8.38;7.53;;;21.50;99.90;;;;;;5071937;28;20256;-71
2021/07/22 08:30:40;;;;;;;10.43;7.63;;;21.50;99.90;;;;;;5071719;28;20264;-71
2021/07/22 08:33:07;;;;;;;10.70;6.53;;;21.60;99.90;;;;;;5071843;28;20211;-71
2021/07/22 08:35:33;;;;;;;7.90;7.07;;;21.60;99.90;;;;;;5071799;28;20573;-71
2021/07/22 08:38:00;;;;;;;9.77;7.10;;;21.60;99.90;;;;;;5071683;28;20228;-72
2021/07/22 08:40:27;;;;;;;8.27;7.47;;;21.60;99.90;;;;;;5071640;28;20670;-71
2021/07/22 08:42:57;;;;;;;7.37;6.37;;;21.50;99.90;;;;;;5071722;28;20203;-71
2021/07/22 08:45:24;;;;;;;7.67;6.73;;;21.50;99.90;;;;;;5071499;28;20249;-71
2021/07/22 08:47:52;;;;;;;8.10;7.30;;;21.50;99.90;;;;;;5071939;28;20277;-71
2021/07/22 08:50:19;;;;;;;9.82;7.00;;;21.50;99.90;;;;;;5071496;28;20215;-72
2021/07/22 08:52:48;;;;;;;7.30;6.60;;;21.60;99.90;;;;;;5071754;28;20250;-72
2021/07/22 08:55:15;;;;;;;7.73;5.93;;;21.60;99.90;;;;;;5071351;28;20204;-71
2021/07/22 08:57:42;;;;;;;8.13;7.13;;;21.70;99.90;;;;;;5071317;28;20238;-71
2021/07/22 09:00:09;;;;;;;7.13;6.40;;;21.70;99.90;;;;;;5071102;28;20242;-72
2021/07/22 09:02:36;;;;;;;7.77;6.43;;;21.80;99.90;;;;;;5071505;28;20243;-72
2021/07/22 09:05:07;;;;;;;7.30;6.47;;;21.90;99.90;;;;;;5071420;28;20234;-72
2021/07/22 09:07:34;;;;;;;6.73;6.03;;;22.10;99.90;;;;;;5071253;28;20188;-71
2021/07/22 09:10:15;;;;;;;9.05;6.53;;;22.20;99.90;;;;;;5070875;28;20246;-72
2021/07/22 09:12:43;;;;;;;8.25;6.57;;;22.30;99.90;;;;;;5070868;28;20654;-72
2021/07/22 09:15:11;;;;;;;11.05;6.95;;;22.40;99.90;;;;;;5070934;28;20285;-72
2021/07/22 09:17:38;;;;;;;8.38;6.72;;;22.30;99.90;;;;;;5070525;28;20678;-71
2021/07/22 09:20:10;;;;;;;7.32;6.63;;;22.40;99.90;;;;;;5071100;28;20211;-72
2021/07/22 09:22:39;;;;;;;6.97;6.20;;;22.20;99.90;;;;;;5071224;28;20230;-72
2021/07/22 09:25:06;;;;;;;7.55;6.40;;;22.20;99.90;;;;;;5071022;28;20269;-72
2021/07/22 09:27:41;;;;;;;7.13;6.45;;;22.30;99.90;;;;;;5070638;28;20810;-72
2021/07/22 09:30:10;;;;;;;10.13;6.63;;;22.40;99.90;;;;;;5071045;28;20188;-72
2021/07/22 09:32:40;;;;;;;7.40;6.70;;;22.40;99.90;;;;;;5071064;28;20208;-72
2021/07/22 09:35:13;;;;;;;11.02;6.32;;;22.30;99.90;;;;;;5070984;28;20208;-72
2021/07/22 09:37:42;;;;;;;8.30;6.47;;;22.20;99.90;;;;;;5070711;28;20261;-72
2021/07/22 09:40:10;;;;;;;11.02;7.13;;;22.20;99.90;;;;;;5070737;28;20255;-72
2021/07/22 09:42:44;;;;;;;9.02;7.53;;;22.20;99.90;;;;;;5070414;28;20207;-72
2021/07/22 09:45:16;;;;;;;7.65;6.95;;;22.10;99.90;;;;;;5070697;28;20286;-72
2021/07/22 09:47:43;;;;;;;7.05;6.45;;;22.00;99.90;;;;;;5070678;28;20195;-71
2021/07/22 09:50:14;;;;;;;7.50;6.30;;;21.80;99.90;;;;;;5070639;28;20246;-71
2021/07/22 09:52:40;;;;;;;6.63;6.10;;;21.80;99.90;;;;;;5070127;28;20204;-72
2021/07/22 09:55:26;;;;;;;6.55;5.95;;;21.80;99.90;;;;;;5070412;28;20242;-72
2021/07/22 09:57:57;;;;;;;6.60;6.05;;;21.70;99.90;;;;;;5070305;28;20235;-71
2021/07/22 10:00:25;;;;;;;9.07;6.97;;;21.80;99.90;;;;;;5069844;28;20257;-72
2021/07/22 10:02:53;;;;;;;7.13;6.23;;;21.80;99.90;;;;;;5070416;28;20207;-72
2021/07/22 10:05:24;;;;;;;6.93;6.00;;;21.80;99.90;;;;;;5070185;28;20208;-71
2021/07/22 10:07:52;;;;;;;7.47;6.70;;;21.90;99.90;;;;;;5070314;28;20191;-71
2021/07/22 10:10:20;;;;;;;8.50;6.33;;;21.90;99.90;;;;;;5069784;28;20308;-72
2021/07/22 10:12:52;;;;;;;7.00;6.32;;;21.90;99.90;;;;;;5070052;28;20212;-72
2021/07/22 10:15:21;;;;;;;6.85;6.25;;;21.90;99.90;;;;;;5069828;28;20229;-72
2021/07/22 10:17:48;;;;;;;7.40;6.70;;;21.80;99.90;;;;;;5070104;28;20253;-72
2021/07/22 10:20:17;;;;;;;8.70;7.13;;;21.80;99.90;;;;;;5069924;28;20207;-72
2021/07/22 10:22:47;;;;;;;7.40;6.43;;;21.80;99.90;;;;;;5069345;28;20949;-72
2021/07/22 10:25:15;;;;;;;11.57;6.82;;;21.90;99.90;;;;;;5069800;28;20245;-72
2021/07/22 10:27:43;;;;;;;8.20;7.30;;;21.90;99.90;;;;;;5069755;28;20204;-72
2021/07/22 10:30:14;;;;;;;9.02;6.90;;;21.90;99.90;;;;;;5068638;28;20760;-72
2021/07/22 10:32:44;;;;;;;7.40;6.70;;;21.90;99.90;;;;;;5069602;28;20239;-72
2021/07/22 10:35:12;;;;;;;8.03;6.97;;;22.00;99.90;;;;;;5069534;28;20235;-72
2021/07/22 10:37:38;;;;;;;7.27;6.63;;;21.90;99.90;;;;;;5069446;28;20224;-72
2021/07/22 10:40:09;;;;;;;8.37;6.77;;;21.90;99.90;;;;;;5069615;28;20254;-72
2021/07/22 10:42:40;;;;;;;7.33;6.67;;;21.90;99.90;;;;;;5069266;28;20220;-72
2021/07/22 10:45:28;;;;;;;13.63;9.60;;;21.80;99.90;;;;;;5069403;28;20546;-72
2021/07/22 10:48:03;;;;;;;7.93;6.93;;;21.80;99.90;;;;;;5069345;28;20242;-72
2021/07/22 10:51:02;;;;;;;9.23;6.90;;;21.70;99.90;;;;;;5069041;28;20211;-72
2021/07/22 10:53:39;;;;;;;9.47;7.07;;;21.60;99.90;;;;;;5069102;28;20202;-73
2021/07/22 10:56:08;;;;;;;7.57;6.77;;;21.50;99.90;;;;;;5069297;28;20203;-72
2021/07/22 10:58:47;;;;;;;7.97;7.27;;;21.50;99.90;;;;;;5069087;28;20585;-72
2021/07/22 11:01:14;;;;;;;11.50;8.00;;;21.50;99.90;;;;;;5068858;28;20245;-72
2021/07/22 11:04:04;;;;;;;10.90;7.77;;;21.50;99.90;;;;;;5068971;28;20264;-72
2021/07/22 11:07:00;;;;;;;7.87;6.90;;;21.60;99.90;;;;;;5053105;28;20300;-73
2021/07/22 11:09:42;;;;;;;8.00;7.10;;;21.60;99.90;;;;;;5068412;28;20297;-72
2021/07/22 11:12:10;;;;;;;10.18;7.43;;;21.70;99.90;;;;;;5068989;28;20269;-72
2021/07/22 11:14:37;;;;;;;7.50;6.80;;;21.80;99.90;;;;;;5068268;28;20732;-72
2021/07/22 11:17:04;;;;;;;12.80;7.77;;;21.90;99.90;;;;;;5069011;28;20242;-73
2021/07/22 11:19:31;;;;;;;8.40;6.90;;;21.90;99.90;;;;;;5068625;28;20238;-72
2021/07/22 11:21:58;;;;;;;7.70;7.00;;;22.00;99.90;;;;;;5068517;28;20731;-73
2021/07/22 11:24:27;;;;;;;9.43;7.75;;;22.20;99.90;;;;;;5068752;28;20302;-73
2021/07/22 11:26:55;;;;;;;7.97;7.15;;;22.30;99.90;;;;;;5068747;28;20208;-73
2021/07/22 11:29:23;;;;;;;7.03;6.32;;;22.40;99.90;;;;;;5068610;28;20617;-72
2021/07/22 11:31:51;;;;;;;8.00;7.25;;;22.60;99.90;;;;;;5068463;28;20681;-72
2021/07/22 11:34:27;;;;;;;8.98;7.63;;;22.70;99.90;;;;;;5068473;28;20572;-73
2021/07/22 11:36:55;;;;;;;8.35;7.65;;;22.90;99.90;;;;;;5068663;28;20219;-73
2021/07/22 11:39:32;;;;;;;9.15;7.80;;;22.90;99.90;;;;;;5068365;28;20219;-73
2021/07/22 11:42:06;;;;;;;10.15;7.63;;;23.00;99.90;;;;;;5068085;28;20747;-73
2021/07/22 11:44:34;;;;;;;10.50;7.60;;;23.00;99.90;;;;;;5068391;28;20600;-73
2021/07/22 11:47:01;;;;;;;7.75;7.05;;;23.00;99.90;;;;;;5068336;28;20211;-73
2021/07/22 11:49:34;;;;;;;8.40;7.60;;;23.20;99.90;;;;;;5068258;28;20261;-73
2021/07/22 11:52:00;;;;;;;8.18;7.43;;;23.30;99.90;;;;;;5068301;28;20200;-73
2021/07/22 11:54:27;;;;;;;9.05;7.30;;;23.30;99.90;;;;;;5068151;28;20242;-73
2021/07/22 11:56:56;;;;;;;8.45;7.65;;;23.30;99.90;;;;;;5068225;28;20549;-73
2021/07/22 11:59:27;;;;;;;9.05;6.90;;;23.10;99.90;;;;;;5068071;28;20210;-73
2021/07/22 12:01:57;;;;;;;8.27;7.57;;;22.90;99.90;;;;;;5068269;28;20219;-73
2021/07/22 12:04:29;;;;;;;8.70;7.93;;;22.80;99.90;;;;;;5068265;28;20191;-73
2021/07/22 12:07:00;;;;;;;9.77;8.18;;;22.60;99.90;;;;;;5068244;28;20214;-73
2021/07/22 12:09:27;;;;;;;10.50;7.97;;;22.40;99.90;;;;;;5067860;28;20267;-72
2021/07/22 12:11:55;;;;;;;9.48;7.47;;;22.30;99.90;;;;;;5068063;28;20266;-73
2021/07/22 12:14:30;;;;;;;7.57;6.78;;;22.20;99.90;;;;;;5067993;28;20254;-73
2021/07/22 12:17:00;;;;;;;10.48;7.07;;;22.10;99.90;;;;;;5068156;28;20203;-73
2021/07/22 12:19:29;;;;;;;13.40;7.13;;;22.00;99.90;;;;;;5068026;28;20208;-73
2021/07/22 12:22:18;;;;;;;9.38;7.55;;;22.00;99.90;;;;;;5067825;28;20259;-73
2021/07/22 12:24:44;;;;;;;10.68;7.72;;;22.00;99.90;;;;;;5068261;28;20233;-73
2021/07/22 12:27:28;;;;;;;8.82;7.78;;;22.00;99.90;;;;;;5068041;28;20211;-73
2021/07/22 12:29:55;;;;;;;11.27;7.88;;;21.90;99.90;;;;;;5067932;28;20192;-72
2021/07/22 12:32:23;;;;;;;8.45;7.40;;;21.90;99.90;;;;;;5067545;28;20242;-72
2021/07/22 12:34:50;;;;;;;8.80;7.90;;;21.90;99.90;;;;;;5068083;28;20207;-73
2021/07/22 12:37:17;;;;;;;9.27;8.38;;;21.80;99.90;;;;;;5067774;28;20255;-73
2021/07/22 12:39:43;;;;;;;8.85;8.05;;;21.80;99.90;;;;;;5067656;28;20255;-73
2021/07/22 12:42:11;;;;;;;9.05;8.15;;;21.80;99.90;;;;;;5067779;28;20669;-73
2021/07/22 12:44:46;;;;;;;11.55;8.95;;;21.80;99.90;;;;;;5067710;28;20219;-72
2021/07/22 12:47:31;;;;;;;10.55;8.27;;;21.90;99.90;;;;;;5067822;28;20196;-73